Observations for STANSTED AIRPORT, United Kingdom (EGSS)

EGSS 180250Z AUTO 15003KT 6000 NCD 00/00 Q1023  
EGSS 180220Z AUTO 16003KT 8000 NCD 01/01 Q1023  
EGSS 180150Z AUTO 16003KT 9000 NCD 01/01 Q1023  
EGSS 180120Z AUTO 17005KT 9999 NCD 01/01 Q1023  
EGSS 180050Z AUTO 16005KT 9999 NCD 01/00 Q1023  
EGSS 180020Z AUTO 15004KT 9999 NCD 02/01 Q1023  
EGSS 172350Z AUTO 23007KT 9999 NCD 02/00 Q1023  
EGSS 172320Z AUTO 22007KT 9999 NCD 01/00 Q1023  
EGSS 172250Z AUTO 19006KT 9999 FEW033 02/00 Q1023   
EGSS 172220Z AUTO 16004KT 9999 FEW035 02/00 Q1023   
EGSS 172150Z AUTO 18006KT 9999 BKN034 03/01 Q1023   
EGSS 172120Z AUTO 16005KT 9999 NCD 02/M00 Q1023 
EGSS 172050Z 17005KT 9999 BKN046 04/00 Q1023
EGSS 172020Z AUTO 15006KT 9999 OVC045 05/01 Q1023   
EGSS 171950Z AUTO 16007KT 9999 OVC040 05/01 Q1023   
EGSS 171920Z AUTO 15007KT 9999 BKN043 05/00 Q1023   
EGSS 171850Z AUTO 15007KT 130V200 9999 NCD 06/00 Q1022  
EGSS 171820Z AUTO 18004KT 140V220 9999 NCD 06/M00 Q1022 
EGSS 171750Z AUTO 21004KT 9999 NCD 07/M01 Q1022 
EGSS 171720Z AUTO 23005KT 9999 NCD 06/M00 Q1022 
EGSS 171650Z AUTO 23006KT 9999 NCD 06/M00 Q1021 
EGSS 171620Z AUTO 19005KT 150V230 9999 NCD 08/M01 Q1021 
EGSS 171550Z AUTO 16005KT 9999 NCD 09/00 Q1022  
EGSS 171520Z AUTO 20006KT 150V240 9999 NCD 08/00 Q1022  
EGSS 171450Z AUTO 22007KT 180V260 9999 NCD 09/01 Q1022  
EGSS 171420Z AUTO 18007KT 150V210 9999 NCD 09/00 Q1022  
EGSS 171350Z AUTO 20008KT 9999 NCD 09/00 Q1022  
EGSS 171320Z AUTO 17008KT 140V200 9999 NCD 09/M01 Q1022 
EGSS 171250Z AUTO 18008KT 150V210 9999 FEW030 08/02 Q1022   
EGSS 171220Z AUTO 16009KT 9999 FEW031 08/02 Q1022   
EGSS 171150Z AUTO 17007KT 130V200 9999 NCD 08/02 Q1022  
EGSS 171120Z AUTO 17006KT 9999 NCD 08/02 Q1022  
EGSS 171050Z AUTO 17007KT 9999 NCD 07/03 Q1022  
EGSS 171020Z AUTO 17007KT 9999 NCD 06/03 Q1022  
EGSS 170950Z AUTO 18006KT 140V200 9999 NCD 05/03 Q1022  
EGSS 170920Z AUTO 16005KT 9999 NCD 05/03 Q1022  
EGSS 170850Z AUTO 15006KT 5000 BR NCD 03/02 Q1022   
EGSS 170820Z AUTO 14005KT 110V180 2000 BR NCD 02/01 Q1022   
EGSS 170750Z AUTO 14005KT 110V170 6000 NCD 02/02 Q1021  
EGSS 170720Z AUTO 13006KT 100V180 4900 BR NCD 02/01 Q1021   
EGSS 170650Z 13004KT 080V190 4700 BR NSC 01/01 Q1021
EGSS 170620Z 11003KT 3500 BR NSC M00/M00 Q1021  
EGSS 170550Z 08003KT 5000 BR NSC M01/M01 Q1021  
EGSS 170520Z VRB02KT 7000 FEW033 01/00 Q1021
EGSS 170450Z AUTO 08003KT 5000 BR BKN031 01/01 Q1021
EGSS 170420Z AUTO VRB03KT 8000 BKN031 01/01 Q1021   
EGSS 170350Z AUTO 07003KT 7000 BKN032 01/00 Q1021   
EGSS 170320Z AUTO 08003KT 8000 OVC028 01/01 Q1021   
EGSS 170250Z AUTO VRB03KT 9999 SCT028 01/01 Q1022   
EGSS 170220Z AUTO 13005KT 9999 NCD 02/01 Q1022